Time;durP1;ratioP1;P1;durP2;ratioP2;P2;SDS_P1;SDS_P2;PMS_P1;PMS_P2;Temp;Humidity;BMP_temperature;BMP_pressure;BME280_temperature;BME280_humidity;BME280_pressure;Samples;Min_cycle;Max_cycle;Signal;HPM_P1;HPM_P2
2022/03/24 00:01:28;;;;;;;17.05;13.20;;;;;;;6.01;63.93;100613.50;5025288;28;20584;-75
2022/03/24 00:03:53;;;;;;;17.83;13.73;;;;;;;5.92;64.25;100609.38;5027175;28;20222;-73
2022/03/24 00:06:18;;;;;;;15.37;11.70;;;;;;;5.87;64.20;100608.66;5030300;28;20206;-73
2022/03/24 00:08:44;;;;;;;13.73;10.30;;;;;;;5.83;64.20;100610.47;5028297;28;20203;-73
2022/03/24 00:11:10;;;;;;;18.03;13.23;;;;;;;5.80;64.38;100602.75;5030818;28;20754;-75
2022/03/24 00:13:36;;;;;;;17.87;11.63;;;;;;;5.79;64.73;100613.22;5026504;28;20485;-75
2022/03/24 00:16:03;;;;;;;16.10;11.48;;;;;;;5.75;64.60;100605.50;5029680;28;20214;-73
2022/03/24 00:18:32;;;;;;;15.10;11.02;;;;;;;5.69;64.99;100610.00;5035764;28;20198;-72
2022/03/24 00:20:58;;;;;;;12.50;11.20;;;;;;;5.65;64.77;100606.63;5039466;28;20225;-76
2022/03/24 00:23:23;;;;;;;15.10;13.00;;;;;;;5.68;64.87;100605.69;5045481;28;20230;-77
2022/03/24 00:25:49;;;;;;;18.50;12.30;;;;;;;5.70;64.84;100607.38;5044038;28;20484;-74
2022/03/24 00:28:15;;;;;;;15.52;10.95;;;;;;;5.72;64.86;100607.31;5036945;28;20197;-73
2022/03/24 00:30:40;;;;;;;19.07;12.07;;;;;;;5.74;64.91;100605.53;5037862;28;20260;-74
2022/03/24 00:33:07;;;;;;;14.33;12.17;;;;;;;5.73;64.51;100604.69;5029184;28;20237;-75
2022/03/24 00:35:32;;;;;;;16.70;11.77;;;;;;;5.72;64.85;100596.88;5028247;28;20241;-74
2022/03/24 00:37:58;;;;;;;16.67;13.00;;;;;;;5.69;64.40;100600.44;5026879;28;20671;-73
2022/03/24 00:40:24;;;;;;;12.97;11.60;;;;;;;5.63;64.98;100600.59;5025725;28;20216;-75
2022/03/24 00:42:50;;;;;;;13.07;11.23;;;;;;;5.53;65.40;100597.38;5028974;28;20217;-76
2022/03/24 00:45:18;;;;;;;14.98;10.98;;;;;;;5.47;65.18;100594.94;5028849;28;20283;-73
2022/03/24 00:47:45;;;;;;;17.70;10.95;;;;;;;5.42;65.36;100598.56;5029456;28;20234;-73
2022/03/24 00:50:12;;;;;;;15.80;11.77;;;;;;;5.34;65.35;100590.97;5033374;28;20197;-75
2022/03/24 00:52:41;;;;;;;19.13;11.70;;;;;;;5.29;65.59;100604.13;5026445;28;20230;-77
2022/03/24 00:55:12;;;;;;;13.25;10.70;;;;;;;5.26;65.58;100600.72;5027440;28;20529;-74
2022/03/24 00:57:39;;;;;;;13.40;11.82;;;;;;;5.23;65.78;100603.41;5027281;28;20210;-75
2022/03/24 01:00:06;;;;;;;18.05;10.02;;;;;;;5.19;65.54;100604.41;5026652;28;20287;-73
2022/03/24 01:02:31;;;;;;;12.95;10.50;;;;;;;5.16;65.76;100602.72;5027928;28;20201;-73
2022/03/24 01:04:57;;;;;;;12.73;10.00;;;;;;;5.16;65.54;100605.34;5044350;28;20717;-76
2022/03/24 01:07:23;;;;;;;13.43;9.70;;;;;;;5.14;65.49;100608.88;5028701;28;20213;-74
2022/03/24 01:09:49;;;;;;;14.00;9.95;;;;;;;5.06;65.37;100598.63;5025044;28;20208;-77
2022/03/24 01:12:14;;;;;;;15.57;9.93;;;;;;;5.03;65.34;100604.78;5029665;28;20281;-73
2022/03/24 01:14:40;;;;;;;12.43;9.67;;;;;;;5.01;65.14;100606.56;5026037;28;21102;-74
2022/03/24 01:17:07;;;;;;;13.97;10.20;;;;;;;4.98;65.41;100609.25;5027987;28;20264;-73
2022/03/24 01:19:34;;;;;;;14.38;10.25;;;;;;;4.98;65.25;100600.56;5024611;28;20288;-73
2022/03/24 01:22:00;;;;;;;17.37;10.50;;;;;;;4.87;65.11;100608.66;5026298;28;20210;-73
2022/03/24 01:24:26;;;;;;;12.98;10.48;;;;;;;4.76;65.32;100600.25;5026795;28;20781;-75
2022/03/24 01:26:51;;;;;;;14.93;10.27;;;;;;;4.61;65.47;100602.28;5037177;28;20320;-74
2022/03/24 01:29:19;;;;;;;15.02;9.88;;;;;;;4.56;65.79;100603.28;5026310;28;20697;-75
2022/03/24 01:31:44;;;;;;;13.73;10.40;;;;;;;4.51;65.95;100597.34;5022979;28;21320;-76
2022/03/24 01:34:11;;;;;;;15.33;12.10;;;;;;;4.49;66.13;100596.53;5024010;28;20222;-78
2022/03/24 01:36:37;;;;;;;12.75;11.10;;;;;;;4.44;65.94;100599.25;5025770;28;20217;-75
2022/03/24 01:39:02;;;;;;;13.60;10.33;;;;;;;4.41;66.03;100599.31;5025488;28;20213;-77
2022/03/24 01:41:28;;;;;;;11.57;8.93;;;;;;;4.40;65.88;100597.59;5027360;28;20694;-73
2022/03/24 01:43:53;;;;;;;15.30;9.50;;;;;;;4.39;65.77;100594.13;5039493;28;20846;-73
2022/03/24 01:46:20;;;;;;;12.10;9.90;;;;;;;4.36;65.87;100594.19;5023934;28;20202;-73
2022/03/24 01:48:46;;;;;;;17.00;11.88;;;;;;;4.33;65.97;100589.06;5024580;28;20241;-74
2022/03/24 01:51:11;;;;;;;16.00;10.70;;;;;;;4.26;66.21;100597.88;5028604;28;20209;-77
2022/03/24 01:53:39;;;;;;;14.50;10.50;;;;;;;4.15;66.32;100595.53;5041144;28;20226;-75
2022/03/24 01:56:05;;;;;;;14.40;10.37;;;;;;;4.11;66.56;100595.63;5026036;28;20286;-73
2022/03/24 01:58:31;;;;;;;12.57;9.37;;;;;;;4.01;66.93;100594.13;5024909;28;20206;-74
2022/03/24 02:01:26;;;;;;;16.58;10.82;;;;;;;3.90;66.96;100595.19;5023004;28;21279;-74
2022/03/24 02:03:53;;;;;;;14.27;10.05;;;;;;;3.86;66.89;100592.66;5021221;28;20256;-76
2022/03/24 02:06:19;;;;;;;11.27;9.23;;;;;;;3.89;66.86;100584.81;5039722;28;20228;-74
2022/03/24 02:08:46;;;;;;;15.13;9.93;;;;;;;3.92;66.77;100589.97;5029427;28;20233;-73
2022/03/24 02:11:12;;;;;;;17.47;10.60;;;;;;;3.95;66.84;100593.34;5038784;28;20233;-73
2022/03/24 02:13:37;;;;;;;14.67;10.73;;;;;;;3.99;66.51;100592.38;5019344;28;20210;-75
2022/03/24 02:16:11;;;;;;;13.13;10.73;;;;;;;4.03;66.58;100585.41;5027274;28;20204;-77
2022/03/24 02:18:36;;;;;;;12.13;9.55;;;;;;;4.04;66.69;100581.91;5022443;28;20238;-74
2022/03/24 02:21:02;;;;;;;14.20;10.90;;;;;;;4.03;66.66;100592.34;5023762;28;20337;-75
2022/03/24 02:23:27;;;;;;;13.33;11.07;;;;;;;4.02;66.64;100590.63;5023975;28;20226;-75
2022/03/24 02:25:55;;;;;;;14.47;10.63;;;;;;;3.99;67.11;100596.72;5023986;28;20205;-73
2022/03/24 02:28:22;;;;;;;15.32;10.45;;;;;;;3.94;66.92;100596.84;5022534;28;20662;-74
2022/03/24 02:30:49;;;;;;;18.33;12.32;;;;;;;3.94;67.57;100595.97;5022559;28;20478;-73
2022/03/24 02:33:14;;;;;;;13.15;11.60;;;;;;;3.91;67.74;100588.25;5024362;28;20229;-75
2022/03/24 02:35:40;;;;;;;15.53;10.43;;;;;;;3.92;67.70;100598.63;5021702;28;20202;-76
2022/03/24 02:38:06;;;;;;;15.70;10.17;;;;;;;3.94;67.74;100598.56;5024397;28;20287;-74
2022/03/24 02:40:32;;;;;;;17.30;12.27;;;;;;;3.95;67.33;100600.31;5028935;28;20312;-75
2022/03/24 02:42:57;;;;;;;14.88;10.30;;;;;;;3.94;67.59;100598.56;5027554;28;20225;-74
2022/03/24 02:45:23;;;;;;;14.30;10.70;;;;;;;3.91;67.80;100599.47;5027194;28;20194;-73
2022/03/24 02:47:49;;;;;;;15.40;9.57;;;;;;;3.89;67.88;100595.19;5028979;28;20242;-75
2022/03/24 02:50:15;;;;;;;11.88;10.60;;;;;;;3.82;67.85;100591.03;5027135;28;20218;-75
2022/03/24 02:52:41;;;;;;;14.57;10.57;;;;;;;3.73;67.98;100587.75;5029236;28;20251;-75
2022/03/24 02:55:07;;;;;;;13.67;9.40;;;;;;;3.70;68.02;100594.72;5028625;28;20210;-74
2022/03/24 02:57:33;;;;;;;17.52;10.68;;;;;;;3.62;68.24;100596.59;5030059;28;20893;-74
2022/03/24 02:59:59;;;;;;;15.07;11.93;;;;;;;3.55;68.43;100601.06;5029010;28;20229;-78
2022/03/24 03:02:24;;;;;;;12.47;9.27;;;;;;;3.47;68.27;100606.41;5025902;28;20262;-74
2022/03/24 03:04:53;;;;;;;15.53;9.77;;;;;;;3.37;68.25;100597.06;5028769;28;20282;-74
2022/03/24 03:07:22;;;;;;;15.55;10.93;;;;;;;3.24;68.79;100596.44;5027492;28;20293;-77
2022/03/24 03:09:48;;;;;;;18.80;10.30;;;;;;;3.17;68.89;100599.19;5023294;28;20214;-77
2022/03/24 03:12:16;;;;;;;18.00;9.95;;;;;;;3.16;69.06;100607.84;5028130;28;20279;-74
2022/03/24 03:14:41;;;;;;;11.63;9.27;;;;;;;3.14;69.09;100607.88;5029389;28;20233;-74
2022/03/24 03:17:08;;;;;;;12.40;8.93;;;;;;;3.13;68.92;100605.28;5025160;28;20213;-74
2022/03/24 03:19:34;;;;;;;14.02;10.40;;;;;;;3.08;69.23;100601.06;5025448;28;20221;-74
2022/03/24 03:22:00;;;;;;;10.47;8.83;;;;;;;3.03;69.63;100604.59;5027052;28;20202;-77
2022/03/24 03:24:26;;;;;;;13.40;8.83;;;;;;;2.98;69.58;100599.47;5027948;28;21276;-73
2022/03/24 03:26:53;;;;;;;13.65;9.52;;;;;;;2.95;69.46;100607.31;5024431;28;20921;-74
2022/03/24 03:29:19;;;;;;;16.17;10.20;;;;;;;2.88;69.92;100609.16;5025051;28;20486;-74
2022/03/24 03:31:44;;;;;;;13.53;9.23;;;;;;;2.81;70.49;100601.50;5028303;28;20206;-76
2022/03/24 03:34:10;;;;;;;15.40;9.80;;;;;;;2.75;70.46;100614.56;5025435;28;20515;-76
2022/03/24 03:36:37;;;;;;;9.97;8.97;;;;;;;2.77;70.23;100615.41;5025296;28;20209;-74
2022/03/24 03:39:03;;;;;;;14.02;11.18;;;;;;;2.82;70.23;100609.25;5022952;28;20214;-74
2022/03/24 03:41:29;;;;;;;13.40;9.40;;;;;;;2.86;69.68;100613.53;5027220;28;20308;-76
2022/03/24 03:43:55;;;;;;;14.60;11.60;;;;;;;2.90;69.58;100611.72;5025756;28;20312;-75
2022/03/24 03:46:22;;;;;;;12.15;9.95;;;;;;;2.92;69.56;100611.69;5023905;28;20210;-74
2022/03/24 03:48:48;;;;;;;12.10;10.93;;;;;;;2.94;69.69;100609.94;5020362;28;20226;-75
2022/03/24 03:51:14;;;;;;;15.03;10.83;;;;;;;2.96;69.50;100603.84;5024707;28;20201;-77
2022/03/24 03:53:40;;;;;;;15.60;10.90;;;;;;;2.95;69.69;100599.53;5025176;28;21357;-74
2022/03/24 03:56:09;;;;;;;11.48;9.32;;;;;;;2.95;69.30;100609.06;5025322;28;20467;-75
2022/03/24 03:58:35;;;;;;;14.20;10.25;;;;;;;2.94;69.71;100605.59;5023563;28;20202;-74
2022/03/24 04:01:04;;;;;;;12.23;9.38;;;;;;;2.95;69.67;100611.66;5023150;28;20214;-74
2022/03/24 04:03:32;;;;;;;11.13;9.80;;;;;;;2.93;69.61;100605.63;5023089;28;20229;-76
2022/03/24 04:06:04;;;;;;;13.77;9.57;;;;;;;2.95;69.44;100607.31;5024416;28;20293;-75
2022/03/24 04:08:31;;;;;;;14.88;9.13;;;;;;;2.97;69.57;100604.69;5024893;28;20264;-76
2022/03/24 04:10:57;;;;;;;14.40;9.77;;;;;;;3.00;69.66;100610.72;5022247;28;20202;-74
2022/03/24 04:13:23;;;;;;;12.68;9.82;;;;;;;3.00;69.37;100605.50;5025833;28;20230;-76
2022/03/24 04:15:52;;;;;;;17.27;10.70;;;;;;;2.98;69.55;100614.22;5023891;28;20692;-77
2022/03/24 04:18:18;;;;;;;14.30;10.52;;;;;;;2.95;69.60;100609.06;5022894;28;20202;-73
2022/03/24 04:20:44;;;;;;;15.40;10.30;;;;;;;2.94;69.58;100608.19;5024706;28;20596;-76
2022/03/24 04:23:11;;;;;;;14.43;11.70;;;;;;;2.90;69.71;100605.69;5023560;28;20234;-74
2022/03/24 04:25:37;;;;;;;12.02;8.27;;;;;;;2.79;70.05;100609.31;5027137;28;20221;-76
2022/03/24 04:28:04;;;;;;;15.70;8.35;;;;;;;2.68;70.29;100605.19;5026935;28;20202;-77
2022/03/24 04:30:30;;;;;;;11.93;8.02;;;;;;;2.59;70.61;100603.56;5024335;28;20201;-75
2022/03/24 04:32:56;;;;;;;13.27;8.70;;;;;;;2.49;70.72;100604.59;5012332;28;20226;-74
2022/03/24 04:35:22;;;;;;;13.60;9.10;;;;;;;2.49;70.67;100602.00;5020445;28;20224;-74
2022/03/24 04:37:49;;;;;;;13.85;8.98;;;;;;;2.51;70.43;100614.06;5014786;28;20209;-77
2022/03/24 04:40:16;;;;;;;12.40;8.70;;;;;;;2.52;70.29;100604.53;5016691;28;20238;-75
2022/03/24 04:42:46;;;;;;;18.23;10.32;;;;;;;2.53;70.20;100608.84;5018951;28;20198;-73
2022/03/24 04:45:13;;;;;;;9.98;8.85;;;;;;;2.54;69.91;100607.94;5016235;28;20210;-73
2022/03/24 04:47:41;;;;;;;13.18;9.45;;;;;;;2.55;69.86;100615.72;5015615;28;20793;-76
2022/03/24 04:50:08;;;;;;;13.77;8.82;;;;;;;2.56;70.01;100620.00;5018942;28;20371;-77
2022/03/24 04:52:34;;;;;;;13.25;9.20;;;;;;;2.57;69.88;100616.56;5021836;28;20711;-74
2022/03/24 04:54:59;;;;;;;16.17;10.60;;;;;;;2.52;70.02;100610.59;5022424;28;21113;-76
2022/03/24 04:57:26;;;;;;;13.97;9.70;;;;;;;2.46;70.48;100621.06;5027039;28;20292;-77
2022/03/24 04:59:52;;;;;;;12.73;9.13;;;;;;;2.39;70.63;100627.19;5023812;28;20218;-73
2022/03/24 05:02:17;;;;;;;14.25;11.00;;;;;;;2.32;70.92;100618.66;5025529;28;20484;-73
2022/03/24 05:04:43;;;;;;;11.60;9.90;;;;;;;2.24;71.36;100617.88;5021429;28;20225;-76
2022/03/24 05:07:09;;;;;;;14.93;10.07;;;;;;;2.18;71.96;100617.97;5024487;28;20877;-76
2022/03/24 05:09:35;;;;;;;15.93;9.83;;;;;;;2.18;71.88;100620.53;5023341;28;20916;-73
2022/03/24 05:12:00;;;;;;;14.63;9.80;;;;;;;2.19;71.75;100624.88;5024615;28;20312;-77
2022/03/24 05:14:26;;;;;;;16.80;10.63;;;;;;;2.20;71.26;100621.41;5025143;28;20319;-73
2022/03/24 05:16:52;;;;;;;14.87;10.20;;;;;;;2.21;71.27;100630.88;5022643;28;20246;-73
2022/03/24 05:19:17;;;;;;;16.47;10.67;;;;;;;2.16;71.53;100624.88;5026473;28;20205;-73
2022/03/24 05:21:42;;;;;;;14.00;10.33;;;;;;;2.16;71.25;100633.53;5024526;28;20233;-77
2022/03/24 05:24:08;;;;;;;15.27;10.40;;;;;;;2.17;71.27;100632.66;5025854;28;20263;-75
2022/03/24 05:26:33;;;;;;;13.63;9.47;;;;;;;2.16;71.22;100632.66;5024470;28;20654;-73
2022/03/24 05:28:59;;;;;;;12.77;9.53;;;;;;;2.07;71.63;100630.19;5023247;28;20217;-76
2022/03/24 05:31:26;;;;;;;16.83;10.60;;;;;;;1.99;71.67;100636.31;5024110;28;21276;-73
2022/03/24 05:33:51;;;;;;;13.15;9.80;;;;;;;1.93;71.54;100633.81;5024757;28;20226;-75
2022/03/24 05:36:17;;;;;;;13.83;10.03;;;;;;;1.93;71.75;100640.72;5023253;28;20264;-76
2022/03/24 05:38:42;;;;;;;16.70;11.17;;;;;;;1.94;71.52;100635.50;5021929;28;20355;-77
2022/03/24 05:41:13;;;;;;;13.60;10.27;;;;;;;1.92;71.72;100645.06;5018907;28;20226;-75
2022/03/24 05:43:39;;;;;;;16.88;10.02;;;;;;;1.97;71.20;100647.56;5025157;28;20310;-74
2022/03/24 05:46:05;;;;;;;14.18;11.02;;;;;;;2.04;71.04;100643.19;5019802;28;20732;-76
2022/03/24 05:48:32;;;;;;;16.77;10.80;;;;;;;2.09;70.90;100644.84;5021169;28;20241;-74
2022/03/24 05:51:16;;;;;;;15.20;10.25;;;;;;;2.16;70.68;100641.31;5019923;28;20285;-75
2022/03/24 05:53:42;;;;;;;14.33;9.90;;;;;;;2.23;70.13;100647.28;5017372;28;20313;-74
2022/03/24 05:56:08;;;;;;;16.73;9.87;;;;;;;2.26;70.55;100647.22;5019300;28;20202;-75
2022/03/24 05:58:33;;;;;;;16.00;10.75;;;;;;;2.29;70.34;100649.78;5021762;28;20642;-77
2022/03/24 06:00:58;;;;;;;15.00;9.50;;;;;;;2.27;70.36;100651.56;5022910;28;20222;-76
2022/03/24 06:03:25;;;;;;;12.30;9.17;;;;;;;2.27;70.25;100658.44;5020892;28;21189;-76
2022/03/24 06:05:51;;;;;;;14.57;9.73;;;;;;;2.25;70.62;100663.66;5018477;28;20198;-74
2022/03/24 06:08:17;;;;;;;13.97;9.43;;;;;;;2.23;70.58;100673.19;5024129;28;20788;-75
2022/03/24 06:10:43;;;;;;;16.08;10.65;;;;;;;2.24;70.75;100674.91;5020629;28;20201;-74
2022/03/24 06:13:08;;;;;;;18.73;12.00;;;;;;;2.26;70.86;100669.72;5022166;28;20283;-76
2022/03/24 06:15:34;;;;;;;16.93;10.77;;;;;;;2.29;70.98;100675.69;5021105;28;20205;-76
2022/03/24 06:17:59;;;;;;;15.60;11.20;;;;;;;2.35;70.49;100670.47;5020185;28;20210;-74
2022/03/24 06:20:25;;;;;;;19.17;10.27;;;;;;;2.44;70.24;100675.50;5021731;28;20812;-77
2022/03/24 06:22:53;;;;;;;15.63;11.27;;;;;;;2.55;70.31;100670.19;5019546;28;21265;-75
2022/03/24 06:25:19;;;;;;;16.80;11.90;;;;;;;2.69;69.81;100662.19;5018413;28;20214;-76
2022/03/24 06:27:46;;;;;;;15.20;10.32;;;;;;;2.76;70.55;100675.97;5019598;28;20198;-75
2022/03/24 06:30:13;;;;;;;12.40;9.88;;;;;;;2.79;69.97;100666.38;5018675;28;20202;-76
2022/03/24 06:32:39;;;;;;;15.57;10.02;;;;;;;2.88;69.96;100670.56;5019151;28;20215;-76
2022/03/24 06:35:05;;;;;;;18.13;11.03;;;;;;;2.93;69.89;100667.91;5024039;28;20203;-74
2022/03/24 06:37:39;;;;;;;12.82;9.48;;;;;;;3.01;69.70;100671.25;5021795;28;20213;-77
2022/03/24 06:40:06;;;;;;;17.60;10.98;;;;;;;3.15;69.06;100673.63;5020123;28;20236;-76
2022/03/24 06:42:32;;;;;;;19.38;11.27;;;;;;;3.26;68.98;100662.16;5021215;28;20198;-77
2022/03/24 06:44:57;;;;;;;20.53;10.77;;;;;;;3.38;68.70;100673.25;5018054;28;20638;-78
2022/03/24 06:47:23;;;;;;;16.50;10.67;;;;;;;3.47;68.36;100666.16;5022183;28;20915;-74
2022/03/24 06:49:48;;;;;;;10.70;9.10;;;;;;;3.59;68.17;100674.59;5022321;28;20260;-77
2022/03/24 06:52:14;;;;;;;13.77;10.10;;;;;;;3.68;67.82;100667.50;5021205;28;20207;-73
2022/03/24 06:54:39;;;;;;;11.20;9.30;;;;;;;3.82;67.69;100669.84;5019411;28;20261;-78
2022/03/24 06:57:05;;;;;;;12.20;10.17;;;;;;;3.94;67.28;100666.16;5015953;28;20252;-78
2022/03/24 06:59:30;;;;;;;14.87;9.63;;;;;;;4.07;67.16;100666.78;5008666;28;20230;-77
2022/03/24 07:01:55;;;;;;;12.90;10.03;;;;;;;4.20;66.87;100663.03;5007732;28;20218;-77
2022/03/24 07:04:21;;;;;;;15.50;11.77;;;;;;;4.31;66.59;100661.06;5012072;28;20725;-75
2022/03/24 07:06:46;;;;;;;19.60;12.60;;;;;;;4.38;66.31;100674.81;5005117;28;20728;-75
2022/03/24 07:09:12;;;;;;;30.97;16.63;;;;;;;4.49;66.20;100669.38;5007593;28;20641;-77
2022/03/24 07:11:37;;;;;;;18.90;11.80;;;;;;;4.58;66.04;100666.56;5010612;28;20210;-78
2022/03/24 07:14:02;;;;;;;21.10;13.93;;;;;;;4.69;66.04;100672.38;5012255;28;20658;-78
2022/03/24 07:16:28;;;;;;;17.40;13.40;;;;;;;4.78;65.55;100667.00;5013815;28;20209;-76
2022/03/24 07:18:53;;;;;;;19.77;13.10;;;;;;;4.92;64.94;100664.06;5011283;28;20339;-78
2022/03/24 07:21:19;;;;;;;22.47;15.23;;;;;;;5.04;64.64;100663.75;5014485;28;20241;-76
2022/03/24 07:23:45;;;;;;;17.10;11.93;;;;;;;5.17;64.59;100666.09;5013556;28;20229;-75
2022/03/24 07:26:10;;;;;;;15.07;11.70;;;;;;;5.28;64.38;100667.53;5015221;28;20233;-76
2022/03/24 07:28:36;;;;;;;19.60;13.67;;;;;;;5.39;64.28;100656.84;5016564;28;20215;-74
2022/03/24 07:31:14;;;;;;;21.20;14.83;;;;;;;5.58;65.55;100665.03;5013770;28;20489;-77
2022/03/24 07:33:41;;;;;;;20.48;13.45;;;;;;;5.72;65.16;100669.88;5013596;28;20246;-76
2022/03/24 07:36:07;;;;;;;18.02;12.57;;;;;;;5.87;64.90;100661.66;5018007;28;20206;-76
2022/03/24 07:38:33;;;;;;;17.60;12.68;;;;;;;6.01;64.29;100660.44;5019225;28;20205;-77
2022/03/24 07:40:59;;;;;;;19.00;13.38;;;;;;;6.13;63.67;100666.19;5018254;28;20226;-78
2022/03/24 07:43:25;;;;;;;22.47;13.83;;;;;;;6.23;63.29;100656.31;5016443;28;20257;-76
2022/03/24 07:45:52;;;;;;;21.08;14.07;;;;;;;6.32;62.56;100656.06;5016594;28;20293;-75
2022/03/24 07:48:20;;;;;;;17.02;15.23;;;;;;;6.41;62.23;100658.41;5020548;28;20229;-77
2022/03/24 07:50:47;;;;;;;21.25;14.85;;;;;;;6.52;62.13;100663.28;5019098;28;21232;-75
2022/03/24 07:53:16;;;;;;;24.38;15.85;;;;;;;6.70;61.45;100659.28;5012940;28;20713;-77
2022/03/24 07:55:45;;;;;;;21.20;16.15;;;;;;;7.08;60.52;100663.28;5018691;28;20209;-76
2022/03/24 07:58:12;;;;;;;25.45;16.90;;;;;;;7.87;59.08;100655.41;5015915;28;20285;-77
2022/03/24 08:00:38;;;;;;;22.25;15.35;;;;;;;8.92;56.63;100644.50;5017884;28;20222;-73
2022/03/24 08:03:06;;;;;;;24.25;15.95;;;;;;;9.88;54.32;100648.31;5017676;28;20325;-73
2022/03/24 08:05:31;;;;;;;23.30;16.00;;;;;;;10.77;52.13;100643.38;5016426;28;20221;-76
2022/03/24 08:07:57;;;;;;;18.97;14.57;;;;;;;11.58;49.98;100636.72;5015908;28;20210;-77
2022/03/24 08:10:23;;;;;;;20.93;16.47;;;;;;;12.27;47.69;100630.47;5016852;28;20461;-73
2022/03/24 08:12:48;;;;;;;21.93;16.20;;;;;;;12.87;46.06;100631.56;5017158;28;20206;-73
2022/03/24 08:15:14;;;;;;;24.00;16.33;;;;;;;13.26;44.76;100624.03;5015684;28;20206;-75
2022/03/24 08:17:40;;;;;;;18.93;14.20;;;;;;;13.76;43.73;100626.38;5009923;28;20213;-73
2022/03/24 08:20:06;;;;;;;18.67;15.63;;;;;;;14.38;42.20;100627.78;5010863;28;20563;-76
2022/03/24 08:22:32;;;;;;;22.08;15.25;;;;;;;14.95;40.89;100626.78;5014671;28;20230;-76
2022/03/24 08:24:57;;;;;;;19.77;14.87;;;;;;;15.22;39.67;100615.34;5014078;28;20257;-73
2022/03/24 08:27:23;;;;;;;19.00;15.20;;;;;;;15.36;39.23;100620.53;5014300;28;20468;-74
2022/03/24 08:29:49;;;;;;;20.27;14.90;;;;;;;15.75;38.33;100620.63;5014914;28;20214;-76
2022/03/24 08:32:15;;;;;;;19.90;13.40;;;;;;;16.10;37.32;100620.81;5015687;28;20293;-78
2022/03/24 08:34:40;;;;;;;18.48;15.57;;;;;;;16.16;37.29;100617.72;5014010;28;20226;-77
2022/03/24 08:37:06;;;;;;;21.87;16.13;;;;;;;16.42;36.88;100615.88;5016530;28;20232;-77
2022/03/24 08:39:32;;;;;;;21.53;15.10;;;;;;;16.66;36.24;100604.41;5014834;28;20302;-77
2022/03/24 08:41:57;;;;;;;17.50;13.53;;;;;;;16.99;35.52;100609.09;5015994;28;20493;-74
2022/03/24 08:44:23;;;;;;;17.03;15.00;;;;;;;17.35;34.81;100617.91;5015205;28;21172;-78
2022/03/24 08:46:48;;;;;;;14.87;11.73;;;;;;;17.59;34.27;100617.84;5015712;28;20282;-75
2022/03/24 08:49:14;;;;;;;21.50;15.30;;;;;;;17.78;33.38;100615.44;5012745;28;20247;-78
2022/03/24 08:51:39;;;;;;;18.57;13.17;;;;;;;17.92;32.84;100622.38;5013849;28;20301;-76
2022/03/24 08:54:05;;;;;;;22.97;13.73;;;;;;;17.66;32.65;100616.38;5011424;28;20713;-75
2022/03/24 08:56:31;;;;;;;17.15;13.85;;;;;;;17.47;32.49;100616.94;5016406;28;20234;-73
2022/03/24 08:58:56;;;;;;;14.83;13.03;;;;;;;17.44;31.84;100619.84;5015017;28;20251;-77
2022/03/24 09:01:22;;;;;;;18.77;13.30;;;;;;;17.31;31.72;100619.97;5012497;28;20246;-78
2022/03/24 09:03:49;;;;;;;15.93;12.70;;;;;;;17.02;32.15;100615.00;5014037;28;20269;-72
2022/03/24 09:06:15;;;;;;;16.83;11.73;;;;;;;17.00;31.47;100608.97;5010791;28;20210;-73
2022/03/24 09:08:42;;;;;;;15.37;13.73;;;;;;;17.19;31.39;100616.41;5013712;28;20213;-76
2022/03/24 09:11:08;;;;;;;16.15;13.93;;;;;;;17.41;31.22;100614.78;5013539;28;20638;-74
2022/03/24 09:13:37;;;;;;;15.75;11.25;;;;;;;17.56;31.11;100610.97;5013749;28;20231;-76
2022/03/24 09:16:05;;;;;;;17.30;12.98;;;;;;;17.42;30.87;100612.00;5015884;28;20198;-75
2022/03/24 09:18:30;;;;;;;14.60;12.98;;;;;;;17.23;31.20;100604.59;5012632;28;20753;-75
2022/03/24 09:20:57;;;;;;;17.60;12.80;;;;;;;17.07;31.55;100608.53;5014051;28;20233;-76
2022/03/24 09:23:24;;;;;;;18.60;14.65;;;;;;;17.01;31.77;100610.69;5014138;28;20221;-74
2022/03/24 09:25:50;;;;;;;20.27;13.23;;;;;;;16.84;31.97;100605.75;5009843;28;20314;-72
2022/03/24 09:28:15;;;;;;;16.90;12.90;;;;;;;16.48;32.84;100606.63;5014153;28;20887;-73
2022/03/24 09:30:42;;;;;;;20.37;13.47;;;;;;;16.27;33.51;100619.63;5011596;28;20468;-74
2022/03/24 09:33:09;;;;;;;20.35;13.20;;;;;;;16.08;33.92;100614.78;5010630;28;20249;-78
2022/03/24 09:35:35;;;;;;;16.40;13.90;;;;;;;16.00;34.25;100611.81;5009785;28;20210;-77
2022/03/24 09:38:00;;;;;;;19.75;13.23;;;;;;;15.91;34.33;100623.91;5007104;28;20499;-76
2022/03/24 09:40:26;;;;;;;17.83;14.30;;;;;;;15.85;34.39;100616.38;5014275;28;20226;-73
2022/03/24 09:42:52;;;;;;;16.87;13.53;;;;;;;15.71;34.46;100622.63;5009434;28;20345;-75
2022/03/24 09:45:19;;;;;;;19.20;13.83;;;;;;;15.57;35.12;100612.94;5007768;28;20453;-78
2022/03/24 09:47:44;;;;;;;22.40;14.80;;;;;;;15.37;35.44;100613.47;5013379;28;20242;-74
2022/03/24 09:50:12;;;;;;;26.27;15.03;;;;;;;15.29;35.72;100606.03;5010400;28;20201;-75
2022/03/24 09:52:38;;;;;;;25.58;17.13;;;;;;;15.27;35.02;100615.88;5011728;28;20210;-75
2022/03/24 09:55:05;;;;;;;23.63;16.10;;;;;;;15.13;35.09;100616.81;5013629;28;20285;-74
2022/03/24 09:57:33;;;;;;;21.55;15.23;;;;;;;15.31;34.82;100613.88;5015102;28;20210;-75
2022/03/24 09:59:58;;;;;;;18.65;15.40;;;;;;;15.33;34.80;100619.91;5014837;28;20241;-75
2022/03/24 10:02:24;;;;;;;25.63;18.23;;;;;;;15.51;34.37;100610.72;5012027;28;20572;-74
2022/03/24 10:05:01;;;;;;;21.40;16.83;;;;;;;15.60;33.82;100602.16;5010066;28;20226;-76
2022/03/24 10:07:29;;;;;;;23.27;17.23;;;;;;;15.61;34.25;100609.16;5010114;28;20202;-71
2022/03/24 10:09:56;;;;;;;27.27;17.75;;;;;;;15.64;34.31;100605.44;5012097;28;20202;-74
2022/03/24 10:12:35;;;;;;;24.10;17.73;;;;;;;15.72;34.35;100594.38;5011493;28;20198;-76
2022/03/24 10:15:03;;;;;;;28.80;18.15;;;;;;;15.67;34.02;100592.00;5011884;28;20233;-72
2022/03/24 10:17:29;;;;;;;31.17;22.75;;;;;;;15.76;34.17;100593.19;5012692;28;20571;-72
2022/03/24 10:20:00;;;;;;;28.63;17.85;;;;;;;15.84;33.38;100585.53;5014672;28;20217;-72
2022/03/24 10:22:26;;;;;;;24.55;17.92;;;;;;;15.96;33.02;100583.81;5017163;28;20245;-75
2022/03/24 10:24:52;;;;;;;30.92;20.17;;;;;;;15.99;32.92;100588.94;5011708;28;20248;-74
2022/03/24 10:27:26;;;;;;;31.23;18.80;;;;;;;16.13;32.57;100576.38;5009690;28;20298;-73
2022/03/24 10:29:57;;;;;;;69.93;41.38;;;;;;;16.15;31.99;100577.13;5009480;28;20460;-73
2022/03/24 10:32:28;;;;;;;28.98;20.17;;;;;;;16.20;32.15;100581.22;5011586;28;20203;-76
2022/03/24 10:34:57;;;;;;;25.70;19.48;;;;;;;16.32;31.81;100585.66;5009734;28;20223;-74
2022/03/24 10:37:25;;;;;;;23.02;16.70;;;;;;;16.47;31.66;100563.34;5010879;28;20256;-72
2022/03/24 10:40:11;;;;;;;24.23;17.17;;;;;;;16.55;31.61;100571.59;5011008;28;20758;-74
2022/03/24 10:42:40;;;;;;;24.15;18.90;;;;;;;16.69;31.67;100567.94;5009485;28;20222;-75
2022/03/24 10:45:21;;;;;;;29.98;21.38;;;;;;;16.82;31.48;100567.88;5007723;28;20203;-76
2022/03/24 10:47:51;;;;;;;24.60;17.77;;;;;;;16.79;31.35;100562.78;5011783;28;20238;-76
2022/03/24 10:50:28;;;;;;;24.35;18.60;;;;;;;16.83;31.33;100560.78;5012300;28;20216;-77
2022/03/24 10:52:59;;;;;;;24.45;18.45;;;;;;;16.90;31.31;100556.69;5012168;28;20291;-75
2022/03/24 10:55:44;;;;;;;23.97;16.80;;;;;;;16.98;30.38;100557.81;5006530;28;20208;-73
2022/03/24 10:58:14;;;;;;;22.57;15.73;;;;;;;16.97;30.47;100548.16;5009545;28;21171;-75
2022/03/24 11:00:41;;;;;;;25.90;17.50;;;;;;;16.93;30.35;100554.66;5011684;28;21454;-72
2022/03/24 11:03:07;;;;;;;27.42;21.40;;;;;;;16.92;30.82;100558.28;5010912;28;20500;-76
2022/03/24 11:05:33;;;;;;;24.40;17.57;;;;;;;16.96;31.12;100548.28;5014863;28;20673;-73
2022/03/24 11:07:59;;;;;;;28.13;19.07;;;;;;;17.01;31.01;100552.28;5013470;28;20509;-75
2022/03/24 11:10:25;;;;;;;26.03;19.30;;;;;;;16.96;31.62;100543.81;5013398;28;20478;-73
2022/03/24 11:12:54;;;;;;;26.47;18.80;;;;;;;17.02;31.65;100543.34;5011158;28;20208;-73
2022/03/24 11:15:20;;;;;;;24.20;17.50;;;;;;;17.02;31.67;100534.53;5012440;28;20209;-73